Impacts METAR Board
IDs:

KDCA - Washington/National, VA, US

Updated at: 1900 UTC 08 Feb 2023
Potential Impact None Slight Moderate High
Time 08/07Z 08/08Z 08/09Z 08/10Z 08/11Z 08/12Z 08/13Z 08/14Z 08/15Z 08/16Z 08/17Z 08/18Z 08/19Z
Temp45 45 45 45 44 45 46 50 52 63 64 64 65
Dewpt36 36 35 36 36 36 37 39 39 42 39 37 36
Altim30.14 30.13 30.13 30.14 30.16 30.20 30.21 30.24 30.25 30.26 30.26 30.25 30.23
VIS10 10 10 10 10 10 10 8 10 10 10 10 10
CIG110 110 110 110 140 55 240 80 250 250 250 250 250
CoverOVCOVCOVCOVCOVCBKNBKNBKNBKNBKNBKNBKNBKN
FltCatVFRVFRVFRVFRVFRVFRVFRVFRVFRVFRVFRVFRVFR
WX--------------------------
WDir6000050000130350320320330
WSpd5 0 0 0 4 0 0 0 3 11 13 11 5
WGst-- -- -- -- -- -- -- -- -- -- -- -- 18
Raw hourly METARs
KDCA 080652Z 06005KT 10SM OVC110 07/02 A3014 RMK AO2 SLP204 T00720022
KDCA 080752Z 00000KT 10SM OVC110 07/02 A3013 RMK AO2 SLP201 T00720022
KDCA 080852Z 00000KT 10SM OVC110 07/02 A3013 RMK AO2 SLP203 T00720017 51002
KDCA 080952Z 00000KT 10SM BKN110 OVC180 07/02 A3014 RMK AO2 SLP205 T00720022
KDCA 081052Z 05004KT 10SM FEW110 BKN140 OVC180 07/02 A3016 RMK AO2 SLP212 T00670022
KDCA 081152Z 00000KT 10SM BKN055 BKN140 07/02 A3020 RMK AO2 SLP225 T00720022 10078 20061 53022
KDCA 081252Z 00000KT 10SM SCT065 BKN240 08/03 A3021 RMK AO2 SLP228 T00780028
KDCA 081352Z 00000KT 8SM FEW060 BKN080 BKN250 10/04 A3024 RMK AO2 SLP238 T01000039
KDCA 081452Z 13003KT 10SM FEW060 FEW150 BKN250 11/04 A3025 RMK AO2 SLP242 T01110039 53018
KDCA 081552Z 35011KT 10SM FEW060 BKN250 17/06 A3026 RMK AO2 SLP246 T01720056
KDCA 081652Z 32013KT 10SM FEW060 BKN250 18/04 A3026 RMK AO2 SLP246 T01780039
KDCA 081752Z 32011KT 10SM BKN250 18/03 A3025 RMK AO2 SLP242 T01780028 10183 20061 50000
KDCA 081852Z 33005G18KT 10SM BKN250 18/02 A3023 RMK AO2 SLP238 T01830022



Page loaded:  19:23 UTC  |   11:23 AM Pacific  |   12:23 PM Mountain  |   01:23 PM Central  |   02:23 PM Eastern

 

ADVISORIES

FORECASTS

FORECASTS

OBSERVATIONS

USER TOOLS

ABOUT US